Time;durP1;ratioP1;P1;durP2;ratioP2;P2;SDS_P1;SDS_P2;PMS_P1;PMS_P2;Temp;Humidity;BMP_temperature;BMP_pressure;BME280_temperature;BME280_humidity;BME280_pressure;Samples;Min_cycle;Max_cycle;Signal;HPM_P1;HPM_P2
2022/09/18 00:01:40;;;;;;;3.00;2.50;;;;;;;13.44;62.42;99788.19;4958193;28;20528;-78
2022/09/18 00:04:07;;;;;;;2.90;2.00;;;;;;;13.46;62.70;99781.00;4958039;28;20474;-78
2022/09/18 00:06:37;;;;;;;2.60;1.48;;;;;;;13.43;62.80;99783.88;4958249;28;20235;-78
2022/09/18 00:09:04;;;;;;;3.30;1.63;;;;;;;13.41;62.61;99793.69;4955798;28;20627;-78
2022/09/18 00:11:35;;;;;;;4.85;1.85;;;;;;;13.41;62.79;99792.84;4955994;28;20568;-78
2022/09/18 00:14:00;;;;;;;3.58;1.80;;;;;;;13.39;62.72;99787.66;4958173;28;20696;-78
2022/09/18 00:16:26;;;;;;;2.40;1.67;;;;;;;13.36;62.85;99785.25;4958001;28;20251;-78
2022/09/18 00:18:52;;;;;;;6.43;2.13;;;;;;;13.36;62.89;99790.53;4958455;28;20240;-78
2022/09/18 00:21:21;;;;;;;3.17;1.58;;;;;;;13.32;62.91;99791.72;4956265;28;20498;-78
2022/09/18 00:23:47;;;;;;;3.38;1.65;;;;;;;13.28;62.98;99791.09;4955855;28;20617;-78
2022/09/18 00:26:15;;;;;;;2.53;2.33;;;;;;;13.27;63.09;99789.41;4956576;28;20350;-78
2022/09/18 00:28:41;;;;;;;1.88;1.67;;;;;;;13.29;63.11;99791.94;4957929;28;20227;-78
2022/09/18 00:31:10;;;;;;;1.73;1.40;;;;;;;13.30;63.23;99785.69;4962572;28;20236;-78
2022/09/18 00:33:36;;;;;;;3.88;1.80;;;;;;;13.30;63.20;99783.06;4939036;28;20478;-78
2022/09/18 00:36:04;;;;;;;1.83;1.30;;;;;;;13.29;63.08;99781.38;4943733;28;20215;-78
2022/09/18 00:38:31;;;;;;;2.20;1.70;;;;;;;13.27;63.24;99780.66;4955699;28;20574;-78
2022/09/18 00:40:57;;;;;;;1.90;1.40;;;;;;;13.26;63.20;99778.97;4942561;28;20536;-78
2022/09/18 00:43:26;;;;;;;3.58;1.30;;;;;;;13.25;63.24;99778.06;4960595;28;20315;-78
2022/09/18 00:46:32;;;;;;;1.10;1.00;;;;;;;13.23;63.20;99776.50;4978041;28;20203;-78
2022/09/18 00:49:03;;;;;;;5.60;1.55;;;;;;;13.20;63.23;99782.00;4976757;28;20231;-78
2022/09/18 00:51:32;;;;;;;4.43;1.27;;;;;;;13.18;63.45;99787.41;4966832;28;20223;-78
2022/09/18 00:54:21;;;;;;;3.25;1.35;;;;;;;13.18;63.35;99787.41;4971753;28;20218;-78
2022/09/18 00:56:48;;;;;;;3.40;1.70;;;;;;;13.18;63.29;99782.13;4980529;28;20680;-78
2022/09/18 00:59:18;;;;;;;2.20;1.20;;;;;;;13.18;63.50;99781.28;4980286;28;20269;-78
2022/09/18 01:01:44;;;;;;;3.15;1.33;;;;;;;13.19;63.36;99780.34;4978527;28;20215;-80
2022/09/18 01:04:13;;;;;;;2.33;1.40;;;;;;;13.17;63.47;99777.78;4976910;28;20845;-78
2022/09/18 01:06:49;;;;;;;3.67;1.45;;;;;;;13.18;63.29;99781.28;4978710;28;20290;-78
2022/09/18 01:09:20;;;;;;;1.92;1.23;;;;;;;13.18;63.43;99776.03;4956665;28;20239;-78
2022/09/18 01:11:54;;;;;;;2.15;1.45;;;;;;;13.17;63.18;99776.94;4976719;28;20215;-78
2022/09/18 01:14:35;;;;;;;1.83;1.52;;;;;;;13.17;63.16;99787.50;4983026;28;20214;-78
2022/09/18 01:17:16;;;;;;;1.98;1.33;;;;;;;13.15;63.08;99781.47;4964077;28;20202;-78
2022/09/18 01:20:28;;;;;;;3.03;1.52;;;;;;;13.13;63.08;99776.34;4993904;28;20208;-78
2022/09/18 01:23:13;;;;;;;3.30;1.23;;;;;;;13.12;63.04;99776.44;4965329;28;20218;-78
2022/09/18 01:26:00;;;;;;;1.98;1.80;;;;;;;13.08;63.19;99781.09;4994140;28;20450;-78
2022/09/18 01:28:55;;;;;;;4.47;1.65;;;;;;;13.07;63.31;99777.63;4961932;28;20223;-78
2022/09/18 01:31:32;;;;;;;4.95;1.25;;;;;;;13.06;63.47;99783.81;4957652;28;20683;-78
2022/09/18 01:34:08;;;;;;;2.33;1.77;;;;;;;13.09;63.52;99790.69;4961817;28;20522;-78
2022/09/18 01:36:39;;;;;;;3.58;1.45;;;;;;;13.09;63.47;99781.94;4977011;28;20200;-78
2022/09/18 01:39:24;;;;;;;3.15;1.35;;;;;;;13.08;63.41;99781.09;4984895;28;20231;-78
2022/09/18 01:41:51;;;;;;;2.60;1.20;;;;;;;13.07;63.64;99785.53;4976657;28;20215;-78
2022/09/18 01:44:27;;;;;;;2.63;1.23;;;;;;;13.04;63.52;99780.47;4978479;28;20561;-78
2022/09/18 01:46:56;;;;;;;3.35;1.65;;;;;;;13.03;63.50;99784.06;4979029;28;20285;-78
2022/09/18 01:49:26;;;;;;;3.53;1.80;;;;;;;13.04;63.48;99776.97;4981178;28;20233;-78
2022/09/18 01:52:02;;;;;;;3.72;1.40;;;;;;;13.05;63.43;99784.78;4961123;28;20206;-79
2022/09/18 01:54:32;;;;;;;4.70;1.90;;;;;;;13.07;63.44;99788.16;4998382;28;20198;-78
2022/09/18 01:57:06;;;;;;;5.03;2.03;;;;;;;13.07;63.52;99777.63;4981460;28;20258;-78
2022/09/18 01:59:42;;;;;;;3.78;1.45;;;;;;;13.09;63.52;99779.28;4999946;28;20252;-78
2022/09/18 02:02:37;;;;;;;6.20;5.00;;;;;;;13.11;63.43;99775.59;4967269;28;20214;-78
2022/09/18 02:05:07;;;;;;;6.05;2.38;;;;;;;13.14;63.85;99785.09;4965994;28;20453;-78
2022/09/18 02:07:44;;;;;;;2.30;1.70;;;;;;;13.13;63.90;99778.13;4996674;28;20235;-78
2022/09/18 02:10:10;;;;;;;4.85;1.70;;;;;;;13.14;63.77;99782.44;4989279;23;20243;-73
2022/09/18 02:12:40;;;;;;;2.92;1.60;;;;;;;13.13;63.71;99778.13;4982593;28;21224;-73
2022/09/18 02:15:12;;;;;;;3.50;1.65;;;;;;;13.12;63.75;99779.06;4994028;28;20210;-73
2022/09/18 02:17:56;;;;;;;2.15;1.80;;;;;;;13.07;63.71;99774.16;4992689;28;20205;-74
2022/09/18 02:20:29;;;;;;;2.92;1.75;;;;;;;13.05;63.78;99778.69;4956307;28;20331;-74
2022/09/18 02:23:03;;;;;;;1.67;1.58;;;;;;;13.01;63.79;99780.66;4957192;28;20837;-74
2022/09/18 02:25:41;;;;;;;4.32;1.48;;;;;;;12.98;63.83;99783.53;4974026;28;20211;-73
2022/09/18 02:28:09;;;;;;;5.18;1.85;;;;;;;12.96;63.85;99774.91;4971448;28;20199;-73
2022/09/18 02:30:38;;;;;;;2.40;1.20;;;;;;;12.95;64.12;99775.84;4957994;28;20541;-74
2022/09/18 02:33:07;;;;;;;2.00;1.30;;;;;;;12.95;63.92;99781.13;4957525;28;20513;-73
2022/09/18 02:35:41;;;;;;;2.88;1.25;;;;;;;12.96;63.80;99788.09;4973375;28;20673;-74
2022/09/18 02:38:23;;;;;;;4.63;1.60;;;;;;;12.99;63.66;99777.31;4956536;28;20647;-73
2022/09/18 02:41:48;;;;;;;3.45;1.25;;;;;;;13.00;63.77;99773.72;4971520;28;20235;-73
2022/09/18 02:44:19;;;;;;;2.33;1.20;;;;;;;12.98;63.77;99775.63;4923163;28;20323;-73
2022/09/18 02:47:28;;;;;;;3.63;1.83;;;;;;;12.94;63.93;99778.59;4956097;28;20768;-74
2022/09/18 02:50:20;;;;;;;1.80;1.40;;;;;;;12.86;64.06;99771.22;4953836;28;20242;-73
2022/09/18 02:53:10;;;;;;;3.10;1.30;;;;;;;12.82;64.19;99780.28;4972515;28;20236;-73
2022/09/18 02:55:49;;;;;;;1.90;1.25;;;;;;;12.79;64.20;99769.97;4973261;28;20277;-73
2022/09/18 02:58:23;;;;;;;2.55;1.40;;;;;;;12.77;64.33;99766.59;4955868;28;20215;-73
2022/09/18 03:00:51;;;;;;;3.65;1.55;;;;;;;12.75;64.53;99763.25;4955330;28;20299;-73
2022/09/18 03:03:26;;;;;;;3.00;1.83;;;;;;;12.74;64.62;99756.25;4957077;28;20858;-74
2022/09/18 03:05:56;;;;;;;4.55;1.77;;;;;;;12.74;64.74;99753.63;4973842;28;20203;-73
2022/09/18 03:08:22;;;;;;;3.45;1.52;;;;;;;12.73;64.84;99755.44;4954087;28;20709;-74
2022/09/18 03:10:47;;;;;;;5.00;1.50;;;;;;;12.71;64.71;99751.22;4954289;28;20212;-73
2022/09/18 03:13:14;;;;;;;3.25;1.65;;;;;;;12.69;65.01;99756.59;4956908;28;20282;-74
2022/09/18 03:15:39;;;;;;;5.00;1.60;;;;;;;12.68;65.02;99748.78;4956762;28;20212;-73
2022/09/18 03:18:04;;;;;;;1.20;1.10;;;;;;;12.66;65.15;99745.41;4958495;28;20203;-74
2022/09/18 03:20:30;;;;;;;1.93;1.60;;;;;;;12.63;64.93;99743.84;4956414;28;20214;-74
2022/09/18 03:22:58;;;;;;;2.55;1.55;;;;;;;12.62;65.08;99744.81;4971054;28;20204;-74
2022/09/18 03:25:24;;;;;;;1.63;1.40;;;;;;;12.62;64.79;99742.16;4957942;28;20330;-73
2022/09/18 03:27:53;;;;;;;2.50;1.27;;;;;;;12.59;65.06;99750.28;4955733;28;20699;-73
2022/09/18 03:30:24;;;;;;;2.05;1.33;;;;;;;12.54;65.10;99750.59;4969341;28;20458;-74
2022/09/18 03:32:49;;;;;;;2.70;1.50;;;;;;;12.54;65.04;99750.59;4954950;28;20479;-73
2022/09/18 03:35:15;;;;;;;3.40;1.40;;;;;;;12.56;65.00;99756.63;4955131;28;20348;-73
2022/09/18 03:37:41;;;;;;;1.23;1.03;;;;;;;12.65;64.74;99746.38;4954759;28;20219;-73
2022/09/18 03:40:08;;;;;;;2.50;1.33;;;;;;;12.68;64.63;99747.00;3929166;28;10012168;-74
2022/09/18 03:42:34;;;;;;;2.60;1.37;;;;;;;12.70;64.64;99746.91;4961919;28;20204;-74
2022/09/18 03:45:00;;;;;;;3.50;1.40;;;;;;;12.70;64.53;99744.28;4956578;28;20212;-74
2022/09/18 03:47:26;;;;;;;3.30;1.20;;;;;;;12.70;64.46;99749.53;4957912;28;20451;-73
2022/09/18 03:49:51;;;;;;;1.60;1.40;;;;;;;12.69;64.34;99755.75;4969114;28;20599;-74
2022/09/18 03:52:18;;;;;;;3.30;1.23;;;;;;;12.69;64.19;99753.97;4954759;28;20484;-74
2022/09/18 03:54:51;;;;;;;2.70;1.20;;;;;;;12.68;64.22;99754.91;4956311;28;20220;-73
2022/09/18 03:57:36;;;;;;;1.98;1.20;;;;;;;12.68;64.34;99751.44;4958158;28;20212;-74
2022/09/18 04:00:18;;;;;;;3.67;1.50;;;;;;;12.67;64.31;99755.03;4955198;28;20271;-74
2022/09/18 04:02:48;;;;;;;2.25;1.10;;;;;;;12.68;64.19;99759.34;4954022;28;20207;-73
2022/09/18 04:05:36;;;;;;;2.33;1.60;;;;;;;12.67;64.21;99755.03;4937459;28;20274;-74
2022/09/18 04:08:20;;;;;;;2.03;1.33;;;;;;;12.67;64.18;99755.03;4952345;28;20310;-74
2022/09/18 04:10:59;;;;;;;1.80;1.48;;;;;;;12.68;64.16;99757.53;4953996;28;20239;-74
2022/09/18 04:13:24;;;;;;;8.63;1.73;;;;;;;12.71;64.12;99764.38;4956425;28;20335;-74
2022/09/18 04:15:50;;;;;;;4.87;1.30;;;;;;;12.72;63.96;99764.28;4954893;28;20212;-74
2022/09/18 04:18:18;;;;;;;4.33;1.50;;;;;;;12.72;64.19;99768.69;4957085;28;20624;-73
2022/09/18 04:20:44;;;;;;;2.13;1.80;;;;;;;12.72;64.29;99758.16;4954880;28;20899;-73
2022/09/18 04:23:13;;;;;;;4.60;2.33;;;;;;;12.71;64.28;99756.47;4954971;28;20223;-73
2022/09/18 04:25:40;;;;;;;1.65;1.50;;;;;;;12.72;64.17;99764.28;4972540;28;20553;-74
2022/09/18 04:28:06;;;;;;;4.45;1.52;;;;;;;12.74;64.21;99756.25;4954195;28;20290;-73
2022/09/18 04:30:36;;;;;;;2.53;1.30;;;;;;;12.76;64.06;99765.75;4955199;28;20683;-74
2022/09/18 04:33:02;;;;;;;1.30;1.20;;;;;;;12.76;64.11;99765.75;4955614;28;20211;-73
2022/09/18 04:35:28;;;;;;;3.50;1.38;;;;;;;12.78;64.09;99760.38;4956168;28;20203;-73
2022/09/18 04:37:54;;;;;;;3.23;1.87;;;;;;;12.77;64.12;99766.59;4627694;28;10012099;-74
2022/09/18 04:40:19;;;;;;;2.13;1.30;;;;;;;12.76;64.30;99778.09;4970533;28;20465;-74
2022/09/18 04:42:45;;;;;;;1.33;1.10;;;;;;;12.75;64.28;99772.00;4954243;28;20205;-73
2022/09/18 04:45:11;;;;;;;3.33;1.37;;;;;;;12.71;64.48;99770.50;4956728;28;20208;-73
2022/09/18 04:47:38;;;;;;;3.50;1.88;;;;;;;12.66;64.54;99769.97;4956870;28;20597;-73
2022/09/18 04:50:07;;;;;;;6.20;1.67;;;;;;;12.62;64.77;99763.25;4953193;28;20228;-73
2022/09/18 04:52:33;;;;;;;2.10;1.10;;;;;;;12.57;64.87;99770.63;4954514;28;20224;-74
2022/09/18 04:55:00;;;;;;;2.40;1.70;;;;;;;12.53;64.84;99769.13;4954844;28;20559;-73
2022/09/18 04:57:25;;;;;;;4.70;1.50;;;;;;;12.50;64.91;99764.94;4954737;28;20560;-74
2022/09/18 04:59:51;;;;;;;4.90;1.87;;;;;;;12.48;64.89;99777.38;4955697;28;20228;-74
2022/09/18 05:02:17;;;;;;;2.20;1.47;;;;;;;12.44;64.99;99770.63;4971540;28;20596;-73
2022/09/18 05:04:43;;;;;;;2.67;1.70;;;;;;;12.44;64.99;99775.88;4956176;28;20546;-73
2022/09/18 05:07:23;;;;;;;3.15;1.83;;;;;;;12.44;64.97;99768.00;4971174;28;20204;-74
2022/09/18 05:09:50;;;;;;;2.25;1.50;;;;;;;12.42;64.88;99782.22;4970438;28;20247;-73
2022/09/18 05:12:16;;;;;;;5.22;1.63;;;;;;;12.40;64.86;99775.28;4956080;28;20299;-74
2022/09/18 05:14:41;;;;;;;3.30;1.90;;;;;;;12.41;64.86;99781.38;4969961;28;20665;-74
2022/09/18 05:17:09;;;;;;;1.85;1.17;;;;;;;12.42;64.64;99783.06;4970290;28;20232;-74
2022/09/18 05:19:40;;;;;;;2.15;1.80;;;;;;;12.42;64.64;99784.84;4969657;28;20597;-73
2022/09/18 05:22:21;;;;;;;2.38;1.25;;;;;;;12.42;64.52;99787.47;4955113;28;20299;-73
2022/09/18 05:24:49;;;;;;;2.65;1.80;;;;;;;12.42;64.43;99788.31;4969944;28;20270;-74
2022/09/18 05:27:15;;;;;;;1.50;1.20;;;;;;;12.43;64.40;99794.44;4955617;28;20208;-73
2022/09/18 05:29:40;;;;;;;1.60;1.47;;;;;;;12.42;64.32;99790.13;4950184;28;20227;-73
2022/09/18 05:32:13;;;;;;;5.65;1.73;;;;;;;12.43;64.25;99783.91;4952624;28;20715;-74
2022/09/18 05:34:39;;;;;;;8.50;1.50;;;;;;;12.43;64.20;99795.28;4953871;28;20204;-74
2022/09/18 05:37:05;;;;;;;6.03;1.45;;;;;;;12.42;64.20;99790.94;4951920;28;20605;-73
2022/09/18 05:39:30;;;;;;;2.33;1.70;;;;;;;12.41;64.00;99802.44;4954342;28;20236;-74
2022/09/18 05:41:59;;;;;;;8.88;3.60;;;;;;;12.37;64.13;99796.56;4969885;28;20277;-73
2022/09/18 05:44:24;;;;;;;1.90;1.60;;;;;;;12.39;64.22;99796.44;4954591;28;20625;-73
2022/09/18 05:46:50;;;;;;;2.38;1.65;;;;;;;12.38;64.05;99808.75;4953785;28;20208;-73
2022/09/18 05:49:16;;;;;;;5.10;1.67;;;;;;;12.38;63.99;99810.56;4953046;28;20230;-73
2022/09/18 05:51:43;;;;;;;2.43;1.83;;;;;;;12.37;63.98;99807.09;4954499;28;20220;-74
2022/09/18 05:54:09;;;;;;;4.00;1.85;;;;;;;12.39;63.73;99810.47;4970348;28;20213;-73
2022/09/18 05:56:38;;;;;;;1.98;1.27;;;;;;;12.41;63.78;99813.00;4969874;28;20654;-73
2022/09/18 05:59:04;;;;;;;1.40;1.30;;;;;;;12.42;63.72;99809.38;4970462;28;20831;-74
2022/09/18 06:01:30;;;;;;;2.43;1.40;;;;;;;12.43;63.69;99805.00;4954999;28;20211;-74
2022/09/18 06:04:12;;;;;;;3.45;1.70;;;;;;;12.45;63.70;99811.84;4970442;28;20542;-74
2022/09/18 06:06:50;;;;;;;2.47;1.52;;;;;;;12.47;63.62;99811.72;4954653;28;20231;-74
2022/09/18 06:09:15;;;;;;;3.57;1.97;;;;;;;12.48;63.49;99814.25;4954972;28;20271;-74
2022/09/18 06:11:41;;;;;;;1.87;1.13;;;;;;;12.45;63.45;99811.84;4970588;28;20704;-74
2022/09/18 06:14:06;;;;;;;2.07;1.90;;;;;;;12.45;63.54;99813.59;4970584;28;20231;-74
2022/09/18 06:16:32;;;;;;;6.70;2.30;;;;;;;12.45;63.41;99819.75;4950216;28;20682;-75
2022/09/18 06:19:02;;;;;;;2.42;1.42;;;;;;;12.46;63.36;99818.78;4932963;29;20252;-74
2022/09/18 06:21:27;;;;;;;1.80;1.30;;;;;;;12.51;63.37;99827.22;4934685;28;20339;-74
2022/09/18 06:23:53;;;;;;;2.58;1.67;;;;;;;12.53;63.21;99822.69;4950468;28;20236;-74
2022/09/18 06:26:48;;;;;;;3.83;1.40;;;;;;;12.57;63.15;99824.16;4934955;28;20216;-74
2022/09/18 06:29:13;;;;;;;2.35;1.85;;;;;;;12.58;63.21;99831.13;4935698;29;20228;-74
2022/09/18 06:31:54;;;;;;;3.08;1.35;;;;;;;12.60;62.95;99825.75;4940066;28;20725;-74
2022/09/18 06:34:21;;;;;;;2.17;1.95;;;;;;;12.65;62.97;99821.00;4939297;28;20304;-73
2022/09/18 06:36:47;;;;;;;2.50;1.53;;;;;;;12.69;62.99;99835.69;4938647;28;20284;-73
2022/09/18 06:39:44;;;;;;;5.57;1.52;;;;;;;12.70;62.64;99823.34;4941080;28;20827;-73
2022/09/18 06:42:36;;;;;;;3.28;1.45;;;;;;;12.69;62.63;99822.50;4942402;29;20209;-73
2022/09/18 06:45:13;;;;;;;3.15;1.58;;;;;;;12.72;62.61;99821.41;4958634;28;20299;-73
2022/09/18 06:47:39;;;;;;;4.00;2.10;;;;;;;12.74;62.59;99828.25;4958882;28;20205;-73
2022/09/18 06:50:06;;;;;;;4.07;1.80;;;;;;;12.74;62.48;99830.06;4958413;28;20335;-73
2022/09/18 06:52:32;;;;;;;2.53;1.60;;;;;;;12.76;62.43;99825.53;4950103;28;20232;-73
2022/09/18 06:55:01;;;;;;;2.03;1.30;;;;;;;12.79;62.37;99820.88;4959407;28;20216;-73
2022/09/18 06:57:30;;;;;;;4.45;1.55;;;;;;;12.83;62.29;99824.19;4958430;28;20227;-74
2022/09/18 06:59:55;;;;;;;7.23;1.70;;;;;;;12.88;62.20;99821.19;4942297;28;20606;-73
2022/09/18 07:02:21;;;;;;;2.00;1.60;;;;;;;12.94;62.16;99824.25;4958687;28;20565;-74
2022/09/18 07:04:55;;;;;;;2.67;1.77;;;;;;;13.00;62.06;99831.75;4943208;29;20218;-74
2022/09/18 07:07:21;;;;;;;3.53;1.50;;;;;;;13.06;61.74;99820.75;4941089;29;20194;-74
2022/09/18 07:09:49;;;;;;;6.68;2.13;;;;;;;13.06;61.71;99825.19;4958049;28;20300;-74
2022/09/18 07:12:57;;;;;;;3.67;1.50;;;;;;;13.06;61.58;99828.66;4938809;28;20282;-74
2022/09/18 07:15:22;;;;;;;4.20;1.88;;;;;;;13.07;61.46;99824.25;4959102;28;20267;-73
2022/09/18 07:17:48;;;;;;;2.50;1.47;;;;;;;13.10;61.44;99831.09;4940946;29;20252;-73
2022/09/18 07:20:15;;;;;;;6.30;1.60;;;;;;;13.14;61.14;99827.28;4958512;28;20220;-74
2022/09/18 07:22:42;;;;;;;2.08;1.77;;;;;;;13.14;61.04;99827.28;4958209;28;20910;-74
2022/09/18 07:25:09;;;;;;;2.20;1.37;;;;;;;13.15;60.99;99818.41;4943118;29;20543;-73
2022/09/18 07:27:35;;;;;;;2.45;1.20;;;;;;;13.16;61.09;99818.31;4942484;28;20235;-74
2022/09/18 07:30:00;;;;;;;2.03;1.38;;;;;;;13.19;60.89;99822.53;4938251;28;20294;-73
2022/09/18 07:32:26;;;;;;;5.93;2.37;;;;;;;13.25;60.75;99822.94;4957305;28;20615;-74
2022/09/18 07:34:52;;;;;;;1.20;1.00;;;;;;;13.31;60.61;99836.66;4942451;29;20232;-74
2022/09/18 07:37:24;;;;;;;2.22;1.50;;;;;;;13.36;60.43;99834.53;4942271;28;20209;-73
2022/09/18 07:40:03;;;;;;;1.80;1.52;;;;;;;13.39;60.16;99831.69;4957614;28;20385;-73
2022/09/18 07:42:47;;;;;;;6.63;1.35;;;;;;;13.40;60.00;99836.03;4944092;29;20255;-73
2022/09/18 07:45:13;;;;;;;5.57;1.13;;;;;;;13.39;59.97;99824.59;4942205;29;20837;-74
2022/09/18 07:47:39;;;;;;;3.38;1.77;;;;;;;13.40;60.00;99831.59;4958079;28;20262;-73
2022/09/18 07:50:12;;;;;;;3.22;1.65;;;;;;;13.44;59.94;99835.66;4939899;28;20283;-73
2022/09/18 07:52:38;;;;;;;3.25;1.63;;;;;;;13.51;59.85;99836.09;4940950;28;20236;-73
2022/09/18 07:55:08;;;;;;;2.20;1.40;;;;;;;13.54;59.92;99841.16;4941340;29;20613;-73
2022/09/18 07:57:35;;;;;;;2.33;1.20;;;;;;;13.56;59.75;99839.25;4957803;28;20212;-73
2022/09/18 08:00:29;;;;;;;15.55;5.30;;;;;;;13.62;59.68;99837.97;4957208;28;20220;-73
2022/09/18 08:03:20;;;;;;;1.95;1.30;;;;;;;13.71;59.30;99838.09;4957274;28;20200;-73
2022/09/18 08:06:18;;;;;;;3.90;1.40;;;;;;;13.75;59.24;99844.03;4943060;28;20231;-73
2022/09/18 08:09:00;;;;;;;2.13;1.90;;;;;;;13.78;58.86;99846.44;5152104;23;20633;-80
2022/09/18 08:11:44;;;;;;;1.95;1.48;;;;;;;13.79;58.89;99840.19;4981453;28;20246;-82
2022/09/18 08:14:37;;;;;;;1.65;1.40;;;;;;;13.82;58.66;99834.69;4986127;28;20199;-80
2022/09/18 08:17:25;;;;;;;1.45;1.27;;;;;;;13.82;58.54;99841.78;4982001;28;20509;-80
2022/09/18 08:20:09;;;;;;;1.40;1.27;;;;;;;13.85;58.34;99834.47;4970676;28;20660;-80
2022/09/18 08:22:57;;;;;;;2.70;1.63;;;;;;;13.87;58.20;99837.00;4964355;28;20669;-82
2022/09/18 08:25:26;;;;;;;2.40;1.70;;;;;;;13.93;58.03;99837.41;4952738;28;20220;-80
2022/09/18 08:27:52;;;;;;;2.22;1.65;;;;;;;14.00;57.88;99831.66;4965730;28;20782;-82
2022/09/18 08:30:30;;;;;;;1.65;1.55;;;;;;;14.08;57.69;99837.22;4950876;28;20293;-79
2022/09/18 08:33:04;;;;;;;2.42;1.42;;;;;;;14.14;57.63;99840.22;4952391;28;20204;-81
2022/09/18 08:35:30;;;;;;;1.98;1.30;;;;;;;14.20;57.58;99846.84;4954318;28;20212;-82
2022/09/18 08:38:01;;;;;;;2.50;1.40;;;;;;;14.26;57.27;99842.94;4955369;28;20208;-80
2022/09/18 08:41:23;;;;;;;1.27;1.17;;;;;;;14.32;56.91;99853.03;4953013;28;20255;-80
2022/09/18 08:44:14;;;;;;;2.88;1.90;;;;;;;14.33;57.13;99847.59;4952527;28;20210;-80
2022/09/18 08:47:11;;;;;;;2.15;1.30;;;;;;;14.37;57.19;99841.16;4966002;28;20287;-84
2022/09/18 08:50:00;;;;;;;6.38;1.75;;;;;;;14.36;57.01;99839.44;4968705;28;20812;-85
2022/09/18 08:52:30;;;;;;;3.13;1.70;;;;;;;14.36;56.79;99847.38;4952637;28;20266;-80
2022/09/18 08:55:29;;;;;;;2.72;2.08;;;;;;;14.36;56.84;99835.97;4971343;28;20234;-80
2022/09/18 08:58:19;;;;;;;3.30;1.98;;;;;;;14.33;56.91;99839.69;4969500;28;20230;-80
2022/09/18 09:00:55;;;;;;;2.85;1.67;;;;;;;14.34;57.06;99836.09;4957142;28;20200;-83
2022/09/18 09:03:35;;;;;;;4.15;1.90;;;;;;;14.38;56.99;99836.69;4950487;28;20742;-80
2022/09/18 09:06:29;;;;;;;3.35;2.25;;;;;;;14.38;57.01;99834.06;4968493;28;20238;-80
2022/09/18 09:09:21;;;;;;;1.65;1.27;;;;;;;14.43;56.86;99831.06;4968473;28;20254;-81
2022/09/18 09:12:08;;;;;;;2.65;1.42;;;;;;;14.46;56.69;99834.31;4952844;28;20415;-79
2022/09/18 09:14:46;;;;;;;3.33;1.55;;;;;;;14.50;56.43;99830.50;4950475;28;20677;-80
2022/09/18 09:17:33;;;;;;;3.22;1.63;;;;;;;14.58;56.44;99832.56;4948417;28;20215;-80
2022/09/18 09:20:21;;;;;;;4.50;2.85;;;;;;;14.62;56.06;99838.47;4961309;28;20263;-83
2022/09/18 09:23:01;;;;;;;3.17;2.30;;;;;;;14.64;56.16;99837.41;4950486;28;20218;-80
2022/09/18 09:25:36;;;;;;;2.90;2.13;;;;;;;14.71;55.76;99838.59;4949442;28;20215;-80
2022/09/18 09:28:48;;;;;;;7.28;1.77;;;;;;;14.86;55.51;99838.38;4920810;28;20315;-79
2022/09/18 09:31:41;;;;;;;4.65;3.00;;;;;;;14.99;55.04;99836.47;4961378;28;20221;-78
2022/09/18 09:35:06;;;;;;;5.63;3.92;;;;;;;15.14;54.91;99839.69;4947192;28;20200;-77
2022/09/18 09:37:44;;;;;;;2.50;1.45;;;;;;;15.30;54.36;99834.88;4946507;28;20334;-80
2022/09/18 09:40:21;;;;;;;2.35;1.52;;;;;;;15.47;53.89;99826.44;4955605;28;20227;-77
2022/09/18 09:42:55;;;;;;;1.75;1.65;;;;;;;15.63;53.21;99826.00;4956673;28;20196;-79
2022/09/18 09:45:29;;;;;;;2.50;1.50;;;;;;;15.78;52.42;99820.47;4946569;28;20688;-82
2022/09/18 09:48:25;;;;;;;3.90;2.33;;;;;;;15.96;51.62;99818.09;4944995;28;20296;-79
2022/09/18 09:51:03;;;;;;;2.40;1.63;;;;;;;16.11;51.01;99819.50;4944175;28;20224;-80
2022/09/18 09:53:29;;;;;;;1.65;1.15;;;;;;;16.26;50.37;99815.56;4957755;28;20224;-78
2022/09/18 09:56:20;;;;;;;2.25;1.50;;;;;;;16.52;49.80;99808.03;4944482;28;20295;-77
2022/09/18 09:58:59;;;;;;;1.42;1.10;;;;;;;16.75;49.03;99805.25;4945181;28;20243;-80
2022/09/18 10:01:30;;;;;;;1.50;1.00;;;;;;;16.94;48.45;99802.72;4958260;28;20299;-77
2022/09/18 10:04:07;;;;;;;3.03;1.50;;;;;;;16.94;48.43;99801.88;4947220;28;20203;-81
2022/09/18 10:06:53;;;;;;;2.85;1.45;;;;;;;17.05;48.20;99800.94;4946034;28;20196;-77
2022/09/18 10:09:27;;;;;;;2.95;1.20;;;;;;;17.24;47.75;99793.03;4960605;28;20613;-77
2022/09/18 10:12:17;;;;;;;4.20;1.20;;;;;;;17.47;46.76;99789.16;4945137;28;20214;-77
2022/09/18 10:14:48;;;;;;;2.83;1.63;;;;;;;17.64;46.38;99790.31;4947302;28;20237;-80
2022/09/18 10:17:18;;;;;;;5.72;4.35;;;;;;;17.72;45.89;99789.63;4962725;28;20205;-77
2022/09/18 10:19:44;;;;;;;2.92;1.40;;;;;;;17.67;46.07;99782.06;4948664;28;20244;-81
2022/09/18 10:22:14;;;;;;;8.98;2.72;;;;;;;17.73;45.86;99772.69;4948569;28;20260;-77
2022/09/18 10:25:04;;;;;;;1.98;1.15;;;;;;;17.85;44.77;99763.63;4949965;28;20225;-77
2022/09/18 10:27:30;;;;;;;1.80;1.23;;;;;;;17.98;44.37;99765.16;4948399;28;20326;-77
2022/09/18 10:29:56;;;;;;;2.07;1.07;;;;;;;18.05;44.14;99753.00;4963909;28;20232;-78
2022/09/18 10:32:40;;;;;;;1.20;1.05;;;;;;;18.08;43.82;99758.00;4950102;28;20285;-78
2022/09/18 10:35:34;;;;;;;2.83;1.10;;;;;;;18.10;43.83;99748.09;4951228;28;20270;-81
2022/09/18 10:38:00;;;;;;;1.80;1.20;;;;;;;18.12;43.89;99746.13;4960496;28;20192;-81
2022/09/18 10:40:30;;;;;;;3.35;1.30;;;;;;;18.09;43.76;99744.59;4943533;28;20229;-77
2022/09/18 10:42:58;;;;;;;2.88;1.00;;;;;;;18.08;44.08;99744.72;4943537;28;20224;-81
2022/09/18 10:45:27;;;;;;;2.85;1.10;;;;;;;18.14;43.87;99734.34;4945309;28;20252;-78
2022/09/18 10:48:12;;;;;;;3.17;1.50;;;;;;;18.34;43.02;99732.50;4943693;28;20203;-80
2022/09/18 10:50:51;;;;;;;1.20;1.10;;;;;;;18.64;42.46;99730.56;4942120;28;20482;-83
2022/09/18 10:53:41;;;;;;;1.10;0.90;;;;;;;18.96;41.73;99724.84;4941647;28;20514;-81
2022/09/18 10:56:20;;;;;;;1.70;1.10;;;;;;;18.92;41.01;99715.47;4957929;28;20541;-78
2022/09/18 10:58:48;;;;;;;1.17;1.07;;;;;;;18.79;41.71;99729.16;4939913;28;20482;-83
2022/09/18 11:01:14;;;;;;;4.00;0.90;;;;;;;18.75;41.65;99724.25;4928979;28;20473;-80
2022/09/18 11:03:48;;;;;;;2.60;1.40;;;;;;;18.57;41.54;99716.16;4943875;28;20227;-81
2022/09/18 11:06:27;;;;;;;1.00;0.80;;;;;;;18.42;42.15;99712.34;4947216;28;20469;-80
2022/09/18 11:08:58;;;;;;;1.30;1.20;;;;;;;18.49;42.14;99718.72;4943235;28;20483;-78
2022/09/18 11:11:30;;;;;;;3.00;1.10;;;;;;;18.54;42.41;99711.16;4944518;28;20475;-82
2022/09/18 11:14:03;;;;;;;1.85;1.20;;;;;;;18.46;42.43;99705.72;4956563;28;21005;-81
2022/09/18 11:16:44;;;;;;;1.57;1.10;;;;;;;18.48;42.47;99706.41;4958623;28;20215;-81
2022/09/18 11:19:11;;;;;;;3.37;1.20;;;;;;;18.55;42.22;99692.41;4938216;28;20483;-85
2022/09/18 11:21:44;;;;;;;1.53;1.07;;;;;;;18.62;42.36;99697.94;4942288;28;21111;-79
2022/09/18 11:24:26;;;;;;;1.77;1.07;;;;;;;18.71;42.57;99694.41;4941648;28;20451;-82
2022/09/18 11:27:02;;;;;;;1.43;1.13;;;;;;;18.70;42.56;99694.56;4942575;28;20453;-80
2022/09/18 11:29:33;;;;;;;1.90;1.07;;;;;;;18.63;42.51;99688.13;4955735;28;20811;-78
2022/09/18 11:32:13;;;;;;;2.30;0.93;;;;;;;18.60;42.51;99681.28;4959241;28;20475;-82
2022/09/18 11:34:47;;;;;;;4.40;1.20;;;;;;;18.72;42.58;99680.13;4958525;28;21031;-83
2022/09/18 11:37:22;;;;;;;1.63;0.90;;;;;;;18.93;42.15;99677.25;4959874;28;20467;-80
2022/09/18 11:39:55;;;;;;;6.43;1.40;;;;;;;19.18;41.74;99678.31;4958641;28;20735;-78
2022/09/18 11:42:21;;;;;;;2.07;0.93;;;;;;;19.29;40.71;99665.78;4944119;28;20610;-78
2022/09/18 11:44:48;;;;;;;1.80;1.27;;;;;;;19.27;40.16;99665.09;4942502;28;20880;-81
2022/09/18 11:47:40;;;;;;;1.30;1.00;;;;;;;19.17;39.77;99660.69;4943023;28;20963;-80
2022/09/18 11:50:18;;;;;;;1.63;0.80;;;;;;;19.10;40.03;99656.13;4938997;28;20822;-83
2022/09/18 11:52:48;;;;;;;1.10;1.00;;;;;;;19.11;39.88;99653.28;4958281;28;20478;-79
2022/09/18 11:55:58;;;;;;;3.43;0.90;;;;;;;19.16;39.08;99648.34;4954764;28;20463;-83
2022/09/18 11:58:52;;;;;;;1.47;1.03;;;;;;;19.31;38.83;99658.44;4941038;28;20452;-84
2022/09/18 12:01:41;;;;;;;1.50;0.97;;;;;;;19.44;38.77;99657.09;4935452;28;20537;-84
2022/09/18 12:04:36;;;;;;;1.10;0.90;;;;;;;19.54;38.71;99659.66;4941913;28;20468;-80
2022/09/18 12:07:31;;;;;;;1.50;1.07;;;;;;;19.58;38.49;99646.91;4940285;28;20476;-78
2022/09/18 12:10:18;;;;;;;2.00;1.10;;;;;;;19.60;38.54;99637.72;4943751;28;20562;-80